Skip Navigation Links Skip Navigation Links

Current Weather

Southwest Michigan Regional, Benton Harbor, Mich.

For information only: do not use for flight planning or navigation.
Latest weather
Observation time Friday, December 3, 2021 3:53 AM EST
Local time Friday, December 3, 2021 4:59 AM EST
Flight conditions Visual Meteorological Conditions
Winds
Wind speed calm
Visibility 10 mi.
Sky condition
Ceiling 7,000 ft. broken clouds
Cloud layer broken clouds 7,000 ft.
Cloud layer overcast 9,000 ft.
Temperature 39°F
Dewpoint 34°F
Altimeter 30.05 in.Hg
Pressure change last 3 hours-0.02 in.Hg
Pressure rising more quickly
Derived measurements
Relative humidity 82%
Wind chill 39°F
Density altitude -751 ft.
Sea-level pressure 30.06 in.Hg
Remarks
Fully automated report.
Automated weather observing station with precipitation discriminator.
METAR KBEH 030853Z AUTO 00000KT 10SM BKN070 OVC090 04/01 A3005 RMK AO2 SLP180 T00390011 53007

Settings

Location code

InnerDrive.Weather 4.0.6770.0 Release CLR 4.0.30319.42000
Copyright ©2018 Inner Drive Technology. All rights reserved. Portions Copyright ©1986-2018 David Braverman.

Find weather

Site navigation


Skip Navigation Links

Place info

Page info

PayPal - The safer, easier way to pay online!

Return home.

Copyright ©2021 Inner Drive Technology. Purveyors of fine, hand-crafted computer software. Page printed 2021-12-03T09:59:04 UTC.